Time;durP1;ratioP1;P1;durP2;ratioP2;P2;SDS_P1;SDS_P2;PMS_P1;PMS_P2;Temp;Humidity;BMP_temperature;BMP_pressure;BME280_temperature;BME280_humidity;BME280_pressure;Samples;Min_cycle;Max_cycle;Signal;HPM_P1;HPM_P2
2024/01/02 00:01:44;;;;;;;27.55;15.23;;;;;;;;;;6223467;28;20046;-74
2024/01/02 00:04:48;;;;;;;25.43;14.13;;;;;;;;;;6224257;28;20065;-74
2024/01/02 00:07:50;;;;;;;26.50;13.55;;;;;;;;;;6225048;28;20073;-74
2024/01/02 00:10:52;;;;;;;25.73;13.38;;;;;;;;;;6220930;28;20073;-74
2024/01/02 00:13:57;;;;;;;25.02;14.73;;;;;;;;;;6226199;28;20080;-74
2024/01/02 00:17:00;;;;;;;23.50;13.63;;;;;;;;;;6226542;28;20064;-74
2024/01/02 00:20:02;;;;;;;25.47;13.23;;;;;;;;;;6224445;28;20054;-73
2024/01/02 00:23:04;;;;;;;24.10;12.98;;;;;;;;;;6225767;28;20355;-73
2024/01/02 00:26:06;;;;;;;23.42;13.60;;;;;;;;;;6226738;28;20108;-74
2024/01/02 00:29:08;;;;;;;24.25;13.65;;;;;;;;;;6227013;28;20080;-74
2024/01/02 00:32:12;;;;;;;26.75;13.88;;;;;;;;;;6222867;28;20064;-74
2024/01/02 00:35:14;;;;;;;26.08;13.57;;;;;;;;;;6226581;28;20047;-73
2024/01/02 00:38:16;;;;;;;22.77;13.23;;;;;;;;;;6229411;28;20054;-74
2024/01/02 00:41:18;;;;;;;24.80;13.27;;;;;;;;;;6231640;28;20080;-74
2024/01/02 00:44:20;;;;;;;24.45;13.15;;;;;;;;;;6231449;28;20422;-74
2024/01/02 00:47:23;;;;;;;25.08;13.55;;;;;;;;;;6233354;28;20057;-74
2024/01/02 00:50:26;;;;;;;23.83;13.53;;;;;;;;;;6231010;28;20299;-74
2024/01/02 00:53:28;;;;;;;24.02;13.82;;;;;;;;;;6231256;28;20355;-78
2024/01/02 00:56:30;;;;;;;24.00;13.57;;;;;;;;;;6232216;28;20058;-79
2024/01/02 00:59:32;;;;;;;24.67;12.50;;;;;;;;;;6232434;28;20247;-78
2024/01/02 01:02:35;;;;;;;22.35;11.88;;;;;;;;;;6214368;28;20379;-77
2024/01/02 01:05:37;;;;;;;21.53;12.10;;;;;;;;;;6233115;28;20462;-79
2024/01/02 01:08:39;;;;;;;20.73;11.85;;;;;;;;;;6228305;28;20112;-78
2024/01/02 01:11:40;;;;;;;21.55;11.05;;;;;;;;;;6231031;28;20054;-78
2024/01/02 01:14:42;;;;;;;20.48;12.25;;;;;;;;;;6228715;28;20060;-79
2024/01/02 01:17:45;;;;;;;19.27;11.68;;;;;;;;;;6233054;28;20376;-80
2024/01/02 01:20:47;;;;;;;20.90;10.98;;;;;;;;;;6232552;28;20454;-79
2024/01/02 01:23:50;;;;;;;22.05;12.15;;;;;;;;;;6228960;28;20118;-79
2024/01/02 01:26:52;;;;;;;17.08;10.75;;;;;;;;;;6230728;28;20355;-79
2024/01/02 01:29:54;;;;;;;20.10;11.68;;;;;;;;;;6229480;28;20467;-79
2024/01/02 01:32:58;;;;;;;22.85;11.95;;;;;;;;;;6230159;28;20619;-80
2024/01/02 01:36:00;;;;;;;18.75;10.88;;;;;;;;;;6232566;28;20395;-79
2024/01/02 01:39:02;;;;;;;18.83;10.68;;;;;;;;;;6230457;28;20249;-79
2024/01/02 01:42:04;;;;;;;16.63;10.63;;;;;;;;;;6231486;28;20053;-79
2024/01/02 01:45:06;;;;;;;17.75;11.13;;;;;;;;;;6231241;28;20049;-79
2024/01/02 01:48:10;;;;;;;16.90;10.32;;;;;;;;;;6230469;28;20057;-80
2024/01/02 01:51:12;;;;;;;18.20;10.40;;;;;;;;;;6230840;28;20121;-78
2024/01/02 01:54:14;;;;;;;15.90;10.07;;;;;;;;;;6242427;28;20053;-78
2024/01/02 01:57:16;;;;;;;19.10;11.20;;;;;;;;;;6229469;28;20584;-79
2024/01/02 02:00:20;;;;;;;18.83;10.77;;;;;;;;;;6230662;28;20356;-79
2024/01/02 02:03:24;;;;;;;16.92;10.63;;;;;;;;;;6212201;28;20053;-74
2024/01/02 02:06:26;;;;;;;19.52;9.35;;;;;;;;;;6230082;28;20054;-76
2024/01/02 02:09:28;;;;;;;18.70;11.20;;;;;;;;;;6227363;28;20059;-75
2024/01/02 02:12:30;;;;;;;18.00;10.93;;;;;;;;;;6228864;28;20058;-75
2024/01/02 02:15:38;;;;;;;17.63;10.82;;;;;;;;;;6230997;28;20552;-74
2024/01/02 02:18:42;;;;;;;16.55;10.40;;;;;;;;;;6230069;28;20069;-74
2024/01/02 02:21:44;;;;;;;20.52;11.40;;;;;;;;;;6229541;28;20053;-74
2024/01/02 02:24:48;;;;;;;18.17;10.63;;;;;;;;;;6225824;28;20046;-75
2024/01/02 02:27:50;;;;;;;15.32;9.23;;;;;;;;;;6227783;28;20061;-75
2024/01/02 02:30:51;;;;;;;22.90;12.80;;;;;;;;;;6228109;28;20050;-74
2024/01/02 02:33:54;;;;;;;23.25;12.65;;;;;;;;;;6229255;28;20057;-75
2024/01/02 02:36:56;;;;;;;23.38;12.10;;;;;;;;;;6235065;28;20080;-75
2024/01/02 02:40:00;;;;;;;23.10;11.45;;;;;;;;;;6226012;28;20046;-75
2024/01/02 02:43:02;;;;;;;24.90;12.63;;;;;;;;;;6228009;28;20106;-74
2024/01/02 02:46:04;;;;;;;20.50;12.15;;;;;;;;;;6227894;28;20065;-74
2024/01/02 02:49:06;;;;;;;23.30;12.27;;;;;;;;;;6222071;28;20055;-75
2024/01/02 02:52:08;;;;;;;21.45;12.60;;;;;;;;;;6258861;28;20267;-74
2024/01/02 02:55:12;;;;;;;23.13;12.32;;;;;;;;;;6250635;28;20252;-74
2024/01/02 02:58:14;;;;;;;22.45;12.23;;;;;;;;;;6251527;28;20057;-75
2024/01/02 03:01:23;;;;;;;24.85;13.02;;;;;;;;;;6227415;28;20041;-75
2024/01/02 03:04:25;;;;;;;20.98;12.32;;;;;;;;;;6227793;28;20038;-75
2024/01/02 03:07:26;;;;;;;23.63;13.38;;;;;;;;;;6229296;28;20410;-74
2024/01/02 03:10:30;;;;;;;24.67;12.75;;;;;;;;;;6227441;28;20060;-74
2024/01/02 03:13:31;;;;;;;27.55;13.93;;;;;;;;;;6229225;28;20355;-80
2024/01/02 03:16:34;;;;;;;24.67;12.93;;;;;;;;;;6258377;28;20549;-81
2024/01/02 03:19:35;;;;;;;35.47;14.38;;;;;;;;;;6258611;28;20061;-80
2024/01/02 03:22:37;;;;;;;30.13;13.85;;;;;;;;;;6227419;28;20121;-78
2024/01/02 03:25:41;;;;;;;30.08;13.98;;;;;;;;;;6226828;28;20384;-79
2024/01/02 03:28:44;;;;;;;24.73;12.70;;;;;;;;;;6229446;28;20243;-80
2024/01/02 03:31:46;;;;;;;21.48;11.77;;;;;;;;;;6226385;28;20287;-80
2024/01/02 03:34:50;;;;;;;24.48;12.77;;;;;;;;;;6226982;28;20057;-79
2024/01/02 03:37:54;;;;;;;23.75;12.18;;;;;;;;;;6227617;28;20389;-80
2024/01/02 03:40:57;;;;;;;21.40;11.98;;;;;;;;;;6228011;28;20057;-80
2024/01/02 03:43:59;;;;;;;21.87;11.97;;;;;;;;;;6225788;28;20063;-79
2024/01/02 03:47:01;;;;;;;25.52;13.25;;;;;;;;;;6228154;28;20065;-80
2024/01/02 03:50:04;;;;;;;24.08;13.18;;;;;;;;;;6227026;28;20053;-79
2024/01/02 03:53:06;;;;;;;22.08;11.50;;;;;;;;;;6227651;28;20108;-80
2024/01/02 03:56:11;;;;;;;22.38;11.63;;;;;;;;;;6228018;28;20379;-81
2024/01/02 03:59:13;;;;;;;21.45;12.07;;;;;;;;;;6226005;28;20371;-80
2024/01/02 04:02:15;;;;;;;23.92;12.57;;;;;;;;;;6227785;28;20058;-80
2024/01/02 04:05:17;;;;;;;19.48;11.27;;;;;;;;;;6225993;28;20046;-80
2024/01/02 04:08:19;;;;;;;23.60;12.25;;;;;;;;;;6227573;28;20081;-80
2024/01/02 04:11:22;;;;;;;20.65;11.25;;;;;;;;;;6223146;28;20357;-80
2024/01/02 04:14:24;;;;;;;22.98;11.63;;;;;;;;;;6230707;28;20109;-80
2024/01/02 04:17:26;;;;;;;21.85;11.50;;;;;;;;;;6231305;28;20062;-81
2024/01/02 04:20:28;;;;;;;21.10;11.60;;;;;;;;;;6232403;28;20414;-80
2024/01/02 04:23:29;;;;;;;19.83;11.43;;;;;;;;;;6232660;28;20228;-80
2024/01/02 04:26:33;;;;;;;21.05;11.98;;;;;;;;;;6232140;28;20221;-80
2024/01/02 04:29:35;;;;;;;20.80;11.18;;;;;;;;;;6231304;28;20061;-80
2024/01/02 04:32:36;;;;;;;20.55;10.57;;;;;;;;;;6232027;28;20065;-75
2024/01/02 04:35:38;;;;;;;20.85;12.02;;;;;;;;;;6230141;28;20057;-74
2024/01/02 04:38:40;;;;;;;24.67;12.88;;;;;;;;;;6233727;28;20540;-75
2024/01/02 04:41:44;;;;;;;26.40;13.30;;;;;;;;;;6230423;28;20060;-75
2024/01/02 04:44:45;;;;;;;24.13;13.27;;;;;;;;;;6261850;28;20046;-75
2024/01/02 04:47:47;;;;;;;24.17;12.50;;;;;;;;;;6230962;28;20061;-75
2024/01/02 04:50:49;;;;;;;25.63;12.68;;;;;;;;;;6230322;28;20072;-75
2024/01/02 04:53:51;;;;;;;26.73;12.63;;;;;;;;;;6232277;28;20073;-76
2024/01/02 04:56:55;;;;;;;24.58;13.70;;;;;;;;;;6231318;28;20049;-75
2024/01/02 04:59:56;;;;;;;25.10;12.97;;;;;;;;;;6229164;28;20058;-76
2024/01/02 05:02:59;;;;;;;26.23;13.02;;;;;;;;;;6229787;28;20112;-74
2024/01/02 05:06:01;;;;;;;25.85;12.88;;;;;;;;;;6241039;28;20053;-75
2024/01/02 05:09:02;;;;;;;28.33;14.15;;;;;;;;;;6249654;28;20366;-76
2024/01/02 05:12:06;;;;;;;26.33;13.45;;;;;;;;;;6253431;28;20072;-76
2024/01/02 05:15:09;;;;;;;26.48;13.52;;;;;;;;;;6248598;28;20084;-75
2024/01/02 05:18:11;;;;;;;24.60;12.45;;;;;;;;;;6255381;28;20064;-75
2024/01/02 05:21:13;;;;;;;27.80;13.23;;;;;;;;;;6256527;28;20061;-74
2024/01/02 05:24:15;;;;;;;26.80;13.80;;;;;;;;;;6254652;28;20340;-75
2024/01/02 05:27:19;;;;;;;24.52;12.85;;;;;;;;;;6255650;28;20083;-75
2024/01/02 05:30:21;;;;;;;24.83;12.85;;;;;;;;;;6255226;28;20053;-75
2024/01/02 05:33:23;;;;;;;26.48;15.18;;;;;;;;;;6255089;28;20119;-75
2024/01/02 05:36:26;;;;;;;24.13;12.80;;;;;;;;;;6255589;28;20056;-75
2024/01/02 05:39:28;;;;;;;24.70;12.13;;;;;;;;;;6255283;28;20240;-74
2024/01/02 05:42:32;;;;;;;28.08;14.30;;;;;;;;;;6254216;28;20052;-75
2024/01/02 05:45:35;;;;;;;25.05;12.73;;;;;;;;;;6255056;28;20095;-75
2024/01/02 05:48:37;;;;;;;26.10;13.80;;;;;;;;;;6253615;28;20054;-74
2024/01/02 05:51:39;;;;;;;29.52;14.43;;;;;;;;;;6256201;28;20263;-75
2024/01/02 05:54:40;;;;;;;29.13;13.98;;;;;;;;;;6253795;28;20111;-75
2024/01/02 05:57:44;;;;;;;25.67;13.32;;;;;;;;;;6285739;28;20163;-75
2024/01/02 06:00:46;;;;;;;28.08;15.02;;;;;;;;;;6254496;28;20452;-75
2024/01/02 06:03:48;;;;;;;28.60;13.65;;;;;;;;;;6253059;28;20053;-75
2024/01/02 06:06:50;;;;;;;24.05;12.57;;;;;;;;;;6255172;28;20045;-75
2024/01/02 06:09:51;;;;;;;23.80;12.18;;;;;;;;;;6254509;28;20276;-75
2024/01/02 06:12:55;;;;;;;24.02;13.13;;;;;;;;;;6253335;28;20053;-75
2024/01/02 06:15:56;;;;;;;28.00;13.30;;;;;;;;;;6255322;28;20061;-75
2024/01/02 06:18:58;;;;;;;25.00;13.57;;;;;;;;;;6230063;28;20124;-75
2024/01/02 06:22:00;;;;;;;24.75;12.70;;;;;;;;;;6230419;28;20050;-75
2024/01/02 06:25:03;;;;;;;25.67;12.85;;;;;;;;;;6254007;28;20065;-75
2024/01/02 06:28:07;;;;;;;25.08;12.88;;;;;;;;;;6253639;28;20096;-75
2024/01/02 06:31:08;;;;;;;26.55;12.48;;;;;;;;;;6253872;28;20118;-75
2024/01/02 06:34:10;;;;;;;28.50;13.82;;;;;;;;;;6251949;28;20049;-73
2024/01/02 06:37:12;;;;;;;30.73;14.05;;;;;;;;;;6254268;28;20060;-74
2024/01/02 06:40:14;;;;;;;25.00;13.27;;;;;;;;;;6252315;28;20237;-74
2024/01/02 06:43:17;;;;;;;24.00;12.90;;;;;;;;;;6255845;28;20060;-74
2024/01/02 06:46:19;;;;;;;26.70;13.07;;;;;;;;;;6251721;28;20053;-74
2024/01/02 06:49:22;;;;;;;28.70;14.20;;;;;;;;;;6252275;28;20080;-74
2024/01/02 06:52:23;;;;;;;24.60;13.18;;;;;;;;;;6250358;28;20075;-75
2024/01/02 06:55:26;;;;;;;23.77;12.85;;;;;;;;;;6253489;28;20045;-82
2024/01/02 06:58:30;;;;;;;23.83;12.57;;;;;;;;;;6251985;28;20061;-82
2024/01/02 07:01:31;;;;;;;28.03;12.70;;;;;;;;;;6254151;28;20116;-82
2024/01/02 07:04:34;;;;;;;21.42;11.40;;;;;;;;;;6253598;28;20449;-81
2024/01/02 07:07:35;;;;;;;26.10;12.35;;;;;;;;;;6253824;28;20060;-82
2024/01/02 07:10:37;;;;;;;25.48;13.65;;;;;;;;;;6253829;28;20140;-82
2024/01/02 07:13:43;;;;;;;32.05;15.70;;;;;;;;;;6251313;28;20054;-82
2024/01/02 07:16:45;;;;;;;32.15;14.95;;;;;;;;;;6251500;28;20057;-82
2024/01/02 07:19:47;;;;;;;35.80;15.70;;;;;;;;;;6252092;28;20045;-81
2024/01/02 07:22:50;;;;;;;29.08;14.93;;;;;;;;;;6251045;28;20057;-81
2024/01/02 07:25:53;;;;;;;30.65;14.55;;;;;;;;;;6254167;28;20045;-81
2024/01/02 07:28:57;;;;;;;30.15;14.32;;;;;;;;;;6252184;28;20049;-80
2024/01/02 07:31:59;;;;;;;30.08;13.60;;;;;;;;;;6253507;28;20068;-80
2024/01/02 07:35:02;;;;;;;30.55;15.02;;;;;;;;;;6250007;28;20065;-80
2024/01/02 07:38:04;;;;;;;32.88;14.20;;;;;;;;;;6252472;28;20053;-84
2024/01/02 07:41:06;;;;;;;29.85;15.07;;;;;;;;;;6251098;28;20116;-82
2024/01/02 07:44:10;;;;;;;36.22;15.32;;;;;;;;;;6251564;28;20145;-81
2024/01/02 07:47:11;;;;;;;30.00;14.50;;;;;;;;;;6252027;28;20104;-81
2024/01/02 07:50:14;;;;;;;26.90;13.80;;;;;;;;;;6252572;28;20060;-82
2024/01/02 07:53:20;;;;;;;25.00;13.95;;;;;;;;;;6253342;28;20069;-82
2024/01/02 07:56:22;;;;;;;26.00;13.45;;;;;;;;;;6250009;28;20115;-81
2024/01/02 07:59:25;;;;;;;24.55;14.32;;;;;;;;;;6251350;28;20061;-81
2024/01/02 08:02:27;;;;;;;27.57;14.27;;;;;;;;;;6249692;28;20046;-80
2024/01/02 08:05:29;;;;;;;26.08;14.25;;;;;;;;;;6250620;28;20056;-75
2024/01/02 08:08:31;;;;;;;27.55;14.00;;;;;;;;;;6251238;28;20057;-75
2024/01/02 08:11:33;;;;;;;28.08;13.68;;;;;;;;;;6252631;28;20085;-75
2024/01/02 08:14:36;;;;;;;27.23;14.63;;;;;;;;;;6251444;28;20045;-74
2024/01/02 08:17:39;;;;;;;24.25;13.48;;;;;;;;;;6249234;28;20111;-74
2024/01/02 08:20:41;;;;;;;25.65;13.60;;;;;;;;;;6252402;28;20045;-75
2024/01/02 08:23:43;;;;;;;24.90;13.70;;;;;;;;;;6250350;28;20124;-74
2024/01/02 08:26:44;;;;;;;26.13;13.73;;;;;;;;;;6252586;28;20053;-75
2024/01/02 08:29:48;;;;;;;28.83;14.98;;;;;;;;;;6252881;28;20056;-74
2024/01/02 08:32:51;;;;;;;28.63;14.30;;;;;;;;;;6251092;28;20131;-73
2024/01/02 08:35:53;;;;;;;29.23;15.20;;;;;;;;;;6251320;28;20539;-74
2024/01/02 08:38:56;;;;;;;32.85;14.70;;;;;;;;;;6253263;28;20058;-74
2024/01/02 08:41:58;;;;;;;27.00;13.75;;;;;;;;;;6252189;28;20057;-75
2024/01/02 08:45:01;;;;;;;29.05;13.60;;;;;;;;;;6250108;28;20057;-75
2024/01/02 08:48:04;;;;;;;27.50;13.20;;;;;;;;;;6252396;28;20057;-74
2024/01/02 08:51:06;;;;;;;29.17;13.82;;;;;;;;;;6251413;28;20061;-75
2024/01/02 08:54:08;;;;;;;28.25;14.50;;;;;;;;;;6252762;28;20251;-75
2024/01/02 08:57:10;;;;;;;32.20;14.07;;;;;;;;;;6251657;28;20355;-74
2024/01/02 09:00:15;;;;;;;29.00;14.70;;;;;;;;;;6255157;28;20057;-74
2024/01/02 09:03:16;;;;;;;26.85;14.05;;;;;;;;;;6256062;28;20057;-76
2024/01/02 09:06:19;;;;;;;30.45;15.18;;;;;;;;;;6256747;28;20444;-75
2024/01/02 09:09:22;;;;;;;30.50;14.85;;;;;;;;;;6252419;28;20314;-74
2024/01/02 09:12:24;;;;;;;29.35;14.98;;;;;;;;;;6285599;28;20048;-74
2024/01/02 09:15:30;;;;;;;29.55;15.23;;;;;;;;;;6255457;28;20069;-75
2024/01/02 09:18:32;;;;;;;31.15;14.77;;;;;;;;;;6253631;28;20068;-75
2024/01/02 09:21:34;;;;;;;28.35;14.88;;;;;;;;;;6255041;28;20443;-76
2024/01/02 09:24:38;;;;;;;27.67;14.98;;;;;;;;;;6255092;28;20111;-75
2024/01/02 09:27:41;;;;;;;30.88;14.43;;;;;;;;;;6254849;28;20084;-75
2024/01/02 09:30:45;;;;;;;30.07;15.20;;;;;;;;;;6254232;28;20037;-75
2024/01/02 09:33:48;;;;;;;27.55;13.90;;;;;;;;;;6250723;28;20859;-75
2024/01/02 09:36:52;;;;;;;27.40;13.90;;;;;;;;;;6250069;28;20079;-75
2024/01/02 09:39:54;;;;;;;26.48;14.48;;;;;;;;;;6250872;28;20308;-75
2024/01/02 09:43:05;;;;;;;29.90;14.20;;;;;;;;;;6254835;28;20057;-75
2024/01/02 09:46:14;;;;;;;28.50;13.65;;;;;;;;;;6255155;28;20065;-74
2024/01/02 09:49:29;;;;;;;29.77;15.30;;;;;;;;;;6255275;28;20065;-74
2024/01/02 09:52:48;;;;;;;24.95;13.60;;;;;;;;;;6248451;28;20053;-74
2024/01/02 09:55:56;;;;;;;27.08;14.10;;;;;;;;;;6251407;28;20347;-74
2024/01/02 09:59:05;;;;;;;29.30;14.73;;;;;;;;;;6253958;28;20128;-73
2024/01/02 10:02:31;;;;;;;28.80;14.55;;;;;;;;;;6250578;28;20061;-74
2024/01/02 10:05:49;;;;;;;33.35;14.45;;;;;;;;;;6248205;28;20042;-75
2024/01/02 10:09:01;;;;;;;30.83;14.95;;;;;;;;;;6250457;28;20053;-75
2024/01/02 10:12:15;;;;;;;30.67;15.25;;;;;;;;;;6250787;28;20049;-74
2024/01/02 10:15:25;;;;;;;29.27;14.18;;;;;;;;;;6232468;28;20046;-75
2024/01/02 10:18:36;;;;;;;30.70;15.07;;;;;;;;;;6249031;28;20061;-76
2024/01/02 10:21:43;;;;;;;33.28;15.43;;;;;;;;;;6255801;28;20053;-74
2024/01/02 10:24:51;;;;;;;34.75;16.73;;;;;;;;;;6253038;28;20355;-81
2024/01/02 10:28:07;;;;;;;32.42;16.25;;;;;;;;;;6254460;28;20073;-81
2024/01/02 10:31:14;;;;;;;35.92;16.42;;;;;;;;;;6232181;28;20115;-81
2024/01/02 10:34:27;;;;;;;37.45;17.00;;;;;;;;;;6255403;28;20053;-82
2024/01/02 10:37:30;;;;;;;44.40;18.73;;;;;;;;;;6252113;28;20335;-82
2024/01/02 10:40:31;;;;;;;40.03;18.73;;;;;;;;;;6253751;28;20045;-81
2024/01/02 10:43:42;;;;;;;40.65;17.30;;;;;;;;;;6278821;28;20058;-81
2024/01/02 10:46:48;;;;;;;46.10;19.52;;;;;;;;;;6229927;28;20057;-81
2024/01/02 10:49:53;;;;;;;45.85;20.52;;;;;;;;;;6261054;28;20060;-82
2024/01/02 10:53:04;;;;;;;41.53;18.48;;;;;;;;;;6228805;28;20458;-79
2024/01/02 10:56:13;;;;;;;37.85;18.52;;;;;;;;;;6228672;28;20084;-80
2024/01/02 10:59:27;;;;;;;43.92;19.00;;;;;;;;;;6228115;28;20057;-81
2024/01/02 11:02:40;;;;;;;42.03;18.48;;;;;;;;;;6228861;28;20053;-80
2024/01/02 11:05:46;;;;;;;41.75;19.27;;;;;;;;;;6228697;28;20060;-81
2024/01/02 11:08:58;;;;;;;40.92;19.67;;;;;;;;;;6228553;28;20062;-81
2024/01/02 11:12:00;;;;;;;42.72;19.20;;;;;;;;;;6228047;28;20104;-81
2024/01/02 11:15:03;;;;;;;41.40;18.20;;;;;;;;;;6228410;28;20049;-81
2024/01/02 11:18:06;;;;;;;42.67;19.45;;;;;;;;;;6228993;28;20613;-81
2024/01/02 11:21:13;;;;;;;44.17;19.13;;;;;;;;;;6228019;28;20053;-82
2024/01/02 11:24:23;;;;;;;48.75;21.27;;;;;;;;;;6225133;28;20054;-82
2024/01/02 11:27:25;;;;;;;40.95;18.42;;;;;;;;;;6222942;28;20656;-80
2024/01/02 11:30:34;;;;;;;50.03;20.23;;;;;;;;;;6228443;28;20386;-81
2024/01/02 11:33:41;;;;;;;45.78;19.73;;;;;;;;;;6227470;28;20050;-74
2024/01/02 11:36:56;;;;;;;48.15;20.13;;;;;;;;;;6229669;28;20280;-74
2024/01/02 11:40:04;;;;;;;39.22;17.73;;;;;;;;;;6227270;28;20076;-74
2024/01/02 11:43:12;;;;;;;38.30;19.60;;;;;;;;;;6227550;28;20121;-74
2024/01/02 11:46:16;;;;;;;37.45;17.40;;;;;;;;;;6229026;28;20050;-74
2024/01/02 11:49:19;;;;;;;38.80;17.88;;;;;;;;;;6226313;28;20038;-74
2024/01/02 11:52:23;;;;;;;41.33;19.15;;;;;;;;;;6229728;28;20057;-74
2024/01/02 11:55:36;;;;;;;37.38;17.10;;;;;;;;;;6228426;28;20052;-75
2024/01/02 11:58:42;;;;;;;31.88;17.13;;;;;;;;;;6227222;28;20100;-75
2024/01/02 12:01:53;;;;;;;35.45;17.10;;;;;;;;;;6259083;28;20366;-75
2024/01/02 12:05:04;;;;;;;31.35;15.68;;;;;;;;;;6225440;28;20107;-74
2024/01/02 12:08:12;;;;;;;35.03;17.00;;;;;;;;;;6225088;28;20054;-75
2024/01/02 12:11:18;;;;;;;37.22;16.48;;;;;;;;;;6228676;28;20050;-75
2024/01/02 12:14:30;;;;;;;37.28;17.80;;;;;;;;;;6226836;28;20075;-75
2024/01/02 12:17:35;;;;;;;34.75;16.50;;;;;;;;;;6257530;28;20057;-74
2024/01/02 12:20:40;;;;;;;33.05;16.95;;;;;;;;;;6226260;28;20359;-75
2024/01/02 12:23:49;;;;;;;32.40;16.83;;;;;;;;;;6226395;28;20080;-75
2024/01/02 12:26:52;;;;;;;33.60;17.27;;;;;;;;;;6226474;28;20108;-75
2024/01/02 12:29:58;;;;;;;32.77;17.50;;;;;;;;;;6241727;28;20053;-74
2024/01/02 12:33:11;;;;;;;32.33;16.67;;;;;;;;;;6252746;28;20061;-75
2024/01/02 12:36:21;;;;;;;30.92;16.75;;;;;;;;;;6255388;28;20049;-75
2024/01/02 12:39:25;;;;;;;33.40;17.73;;;;;;;;;;6257080;28;20073;-74
2024/01/02 12:42:29;;;;;;;33.53;17.40;;;;;;;;;;6254388;28;20068;-75
2024/01/02 12:45:32;;;;;;;34.03;17.10;;;;;;;;;;6256565;28;20060;-82
2024/01/02 12:48:41;;;;;;;30.58;16.08;;;;;;;;;;6255881;28;20351;-80
2024/01/02 12:51:46;;;;;;;30.85;15.98;;;;;;;;;;6255992;28;20057;-81
2024/01/02 12:54:50;;;;;;;29.75;16.50;;;;;;;;;;6252503;28;20056;-81
2024/01/02 12:57:52;;;;;;;29.35;16.00;;;;;;;;;;6255865;28;20053;-82
2024/01/02 13:00:55;;;;;;;29.50;16.42;;;;;;;;;;6289106;28;20284;-81
2024/01/02 13:03:56;;;;;;;26.58;14.13;;;;;;;;;;6256501;28;20129;-80
2024/01/02 13:06:58;;;;;;;25.88;13.73;;;;;;;;;;6254287;28;20061;-82
2024/01/02 13:10:05;;;;;;;23.23;13.65;;;;;;;;;;6256688;28;20061;-80
2024/01/02 13:13:07;;;;;;;26.73;14.13;;;;;;;;;;6253897;28;20053;-81
2024/01/02 13:16:10;;;;;;;27.20;14.40;;;;;;;;;;6255996;28;20284;-82
2024/01/02 13:19:15;;;;;;;27.42;15.45;;;;;;;;;;6256343;28;20124;-82
2024/01/02 13:22:21;;;;;;;29.05;14.48;;;;;;;;;;6252637;28;20363;-81
2024/01/02 13:25:25;;;;;;;27.55;14.50;;;;;;;;;;6254372;28;20336;-82
2024/01/02 13:28:28;;;;;;;25.45;13.65;;;;;;;;;;6254787;28;20303;-81
2024/01/02 13:31:31;;;;;;;27.38;15.13;;;;;;;;;;6253952;28;20053;-81
2024/01/02 13:34:32;;;;;;;26.58;14.73;;;;;;;;;;6254914;28;20049;-82
2024/01/02 13:37:34;;;;;;;27.00;14.88;;;;;;;;;;6255846;28;20149;-82
2024/01/02 13:40:38;;;;;;;24.60;13.73;;;;;;;;;;6254246;28;20111;-80
2024/01/02 13:43:39;;;;;;;29.20;14.93;;;;;;;;;;6254320;28;20053;-81
2024/01/02 13:46:48;;;;;;;27.10;15.77;;;;;;;;;;6256329;28;20351;-84
2024/01/02 13:49:52;;;;;;;26.10;15.95;;;;;;;;;;6255209;28;20104;-81
2024/01/02 13:53:01;;;;;;;25.45;14.18;;;;;;;;;;6255718;28;20103;-74
2024/01/02 13:56:08;;;;;;;27.38;15.18;;;;;;;;;;6253594;28;20060;-75
2024/01/02 13:59:12;;;;;;;25.77;14.88;;;;;;;;;;6286910;28;20310;-74
2024/01/02 14:02:14;;;;;;;27.10;14.30;;;;;;;;;;6255705;28;20049;-75
2024/01/02 14:05:21;;;;;;;27.38;14.95;;;;;;;;;;6250813;28;20041;-75
2024/01/02 14:08:25;;;;;;;29.20;14.85;;;;;;;;;;6254234;28;20113;-74
2024/01/02 14:11:28;;;;;;;28.75;15.13;;;;;;;;;;6251266;28;20053;-74
2024/01/02 14:14:34;;;;;;;27.15;14.65;;;;;;;;;;6253822;28;20046;-74
2024/01/02 14:17:38;;;;;;;27.58;14.48;;;;;;;;;;6253567;28;20364;-75
2024/01/02 14:20:42;;;;;;;22.23;13.27;;;;;;;;;;6253651;28;20302;-75
2024/01/02 14:23:49;;;;;;;22.65;12.70;;;;;;;;;;6253859;28;20103;-73
2024/01/02 14:27:00;;;;;;;21.00;12.70;;;;;;;;;;6252722;28;20115;-75
2024/01/02 14:30:12;;;;;;;21.73;11.57;;;;;;;;;;6253698;28;20099;-74
2024/01/02 14:33:43;;;;;;;24.30;12.57;;;;;;;;;;6253556;28;20085;-74
2024/01/02 14:36:57;;;;;;;20.73;12.80;;;;;;;;;;6255223;28;20045;-75
2024/01/02 14:40:07;;;;;;;21.58;12.85;;;;;;;;;;6229534;28;20058;-75
2024/01/02 14:43:28;;;;;;;22.92;13.00;;;;;;;;;;6230779;28;20076;-74
2024/01/02 14:46:37;;;;;;;21.67;12.20;;;;;;;;;;6252500;28;20045;-74
2024/01/02 14:49:39;;;;;;;21.83;12.88;;;;;;;;;;6245783;28;20448;-74
2024/01/02 14:53:06;;;;;;;21.88;12.90;;;;;;;;;;6235393;28;20221;-74
2024/01/02 14:56:15;;;;;;;19.13;11.50;;;;;;;;;;6257933;28;20049;-74
2024/01/02 14:59:26;;;;;;;18.95;11.65;;;;;;;;;;6285753;28;20362;-74
2024/01/02 15:02:52;;;;;;;19.00;11.32;;;;;;;;;;6252577;28;20084;-75
2024/01/02 15:06:00;;;;;;;21.65;11.60;;;;;;;;;;6250966;28;20057;-75
2024/01/02 15:09:07;;;;;;;19.60;11.23;;;;;;;;;;6253204;28;20057;-74
2024/01/02 15:12:14;;;;;;;23.48;12.65;;;;;;;;;;6273733;28;20104;-75
2024/01/02 15:15:26;;;;;;;25.02;13.02;;;;;;;;;;6248563;28;20042;-74
2024/01/02 15:18:40;;;;;;;25.17;13.05;;;;;;;;;;6250841;28;20064;-74
2024/01/02 15:21:51;;;;;;;21.77;13.07;;;;;;;;;;6253322;28;20252;-75
2024/01/02 15:24:58;;;;;;;20.05;12.68;;;;;;;;;;6252533;28;20260;-75
2024/01/02 15:28:04;;;;;;;23.70;13.23;;;;;;;;;;6228876;28;20386;-74
2024/01/02 15:31:14;;;;;;;24.95;13.82;;;;;;;;;;6253325;28;20049;-74
2024/01/02 15:34:26;;;;;;;23.13;12.90;;;;;;;;;;6251870;28;20053;-74
2024/01/02 15:37:29;;;;;;;23.75;12.30;;;;;;;;;;6284277;28;20473;-74
2024/01/02 15:40:36;;;;;;;19.63;12.30;;;;;;;;;;6251711;28;20076;-74
2024/01/02 15:43:47;;;;;;;20.27;11.52;;;;;;;;;;6245614;28;20053;-75
2024/01/02 15:46:58;;;;;;;20.52;12.32;;;;;;;;;;6235401;28;20347;-74
2024/01/02 15:50:05;;;;;;;21.83;13.40;;;;;;;;;;6254269;28;20064;-75
2024/01/02 15:53:13;;;;;;;19.90;11.82;;;;;;;;;;6284513;28;20057;-75
2024/01/02 15:56:31;;;;;;;20.50;11.95;;;;;;;;;;6251447;28;20057;-74
2024/01/02 15:59:38;;;;;;;20.65;12.32;;;;;;;;;;6252439;28;20053;-75
2024/01/02 16:03:09;;;;;;;21.20;12.15;;;;;;;;;;6250293;28;20045;-75
2024/01/02 16:06:44;;;;;;;21.55;12.50;;;;;;;;;;6252346;28;20056;-74
2024/01/02 16:10:01;;;;;;;;;;;;;;;;;;6250346;28;20347;-75
2024/01/02 16:13:17;;;;;;;18.55;11.10;;;;;;;;;;6252356;28;20194;-75
2024/01/02 16:16:41;;;;;;;22.27;13.05;;;;;;;;;;6249422;28;20054;-76
2024/01/02 16:20:11;;;;;;;18.63;11.23;;;;;;;;;;6250021;28;20053;-75
2024/01/02 16:23:31;;;;;;;20.88;12.05;;;;;;;;;;6233438;28;20068;-75
2024/01/02 16:26:59;;;;;;;23.17;12.32;;;;;;;;;;6250344;28;20053;-75
2024/01/02 16:30:25;;;;;;;19.20;12.07;;;;;;;;;;6249262;28;20107;-75
2024/01/02 16:33:41;;;;;;;18.08;11.32;;;;;;;;;;6252117;28;20339;-76
2024/01/02 16:36:57;;;;;;;24.15;12.00;;;;;;;;;;6251992;28;20103;-75
2024/01/02 16:40:11;;;;;;;18.25;10.93;;;;;;;;;;6229222;28;20061;-75
2024/01/02 16:43:12;;;;;;;17.73;11.65;;;;;;;;;;6249105;28;20049;-75
2024/01/02 16:46:23;;;;;;;22.02;11.25;;;;;;;;;;6227267;28;20568;-75
2024/01/02 16:49:27;;;;;;;19.67;10.95;;;;;;;;;;6227754;28;20075;-76
2024/01/02 16:52:33;;;;;;;18.90;11.35;;;;;;;;;;6227083;28;20100;-75
2024/01/02 16:55:36;;;;;;;17.52;11.68;;;;;;;;;;6226262;28;20061;-75
2024/01/02 16:58:38;;;;;;;20.67;11.68;;;;;;;;;;6226205;28;20197;-75
2024/01/02 17:01:42;;;;;;;17.60;10.82;;;;;;;;;;6226337;28;20057;-75
2024/01/02 17:04:47;;;;;;;20.88;12.05;;;;;;;;;;6225718;28;20049;-75
2024/01/02 17:07:49;;;;;;;16.52;10.75;;;;;;;;;;6225008;28;20105;-75
2024/01/02 17:10:51;;;;;;;18.40;11.02;;;;;;;;;;6256847;28;20108;-76
2024/01/02 17:13:54;;;;;;;21.25;10.65;;;;;;;;;;6225974;28;20050;-76
2024/01/02 17:16:57;;;;;;;19.17;11.43;;;;;;;;;;6226657;28;20057;-76
2024/01/02 17:20:00;;;;;;;18.75;11.20;;;;;;;;;;6228357;28;20115;-76
2024/01/02 17:23:02;;;;;;;19.73;11.82;;;;;;;;;;6231097;28;20072;-76
2024/01/02 17:26:07;;;;;;;20.00;11.93;;;;;;;;;;6221950;28;20050;-76
2024/01/02 17:29:11;;;;;;;22.92;12.38;;;;;;;;;;6258525;28;20076;-76
2024/01/02 17:32:14;;;;;;;17.42;10.38;;;;;;;;;;6227989;28;20062;-77
2024/01/02 17:35:16;;;;;;;20.52;11.65;;;;;;;;;;6231433;28;20064;-76
2024/01/02 17:38:23;;;;;;;18.42;11.93;;;;;;;;;;6232006;28;20117;-76
2024/01/02 17:41:26;;;;;;;20.08;12.57;;;;;;;;;;6245084;28;20356;-75
2024/01/02 17:44:29;;;;;;;17.20;11.38;;;;;;;;;;6227349;28;20076;-75
2024/01/02 17:47:33;;;;;;;18.55;11.38;;;;;;;;;;6231516;28;20054;-76
2024/01/02 17:50:37;;;;;;;19.77;12.13;;;;;;;;;;6231279;28;20378;-75
2024/01/02 17:53:43;;;;;;;18.27;11.80;;;;;;;;;;6229712;28;20062;-76
2024/01/02 17:56:46;;;;;;;18.05;10.63;;;;;;;;;;6230241;28;20340;-75
2024/01/02 17:59:56;;;;;;;18.75;10.95;;;;;;;;;;6230481;28;20367;-75